Time;durP1;ratioP1;P1;durP2;ratioP2;P2;SDS_P1;SDS_P2;PMS_P1;PMS_P2;Temp;Humidity;BMP_temperature;BMP_pressure;BME280_temperature;BME280_humidity;BME280_pressure;Samples;Min_cycle;Max_cycle;Signal;HPM_P1;HPM_P2
2022/10/13 00:02:08;;;;;;;;;49.60;41.00;;;;;11.26;58.68;99626.97;6214288;27;96394;-73
2022/10/13 00:05:11;;;;;;;;;51.80;41.80;;;;;11.31;59.09;99635.28;6276584;27;96607;-73
2022/10/13 00:08:17;;;;;;;;;50.60;41.40;;;;;11.34;59.03;99642.94;6224406;28;96107;-73
2022/10/13 00:11:23;;;;;;;;;50.00;41.40;;;;;11.32;58.98;99623.44;6292979;27;96751;-73
2022/10/13 00:14:27;;;;;;;;;49.00;40.40;;;;;11.35;59.17;99624.88;6238731;27;96299;-72
2022/10/13 00:17:31;;;;;;;;;51.33;42.00;;;;;11.33;58.42;99632.38;6253784;27;96627;-72
2022/10/13 00:20:36;;;;;;;;;47.00;39.00;;;;;11.16;58.40;99599.56;6231598;28;96911;-73
2022/10/13 00:23:40;;;;;;;;;49.00;40.00;;;;;11.11;58.68;99596.66;6300167;27;96719;-73
2022/10/13 00:26:43;;;;;;;;;47.00;39.00;;;;;11.35;58.76;99630.28;6227299;28;96958;-73
2022/10/13 00:29:54;;;;;;;;;46.80;39.00;;;;;11.29;58.61;99621.97;6233395;28;96600;-73
2022/10/13 00:32:58;;;;;;;;;50.00;39.00;;;;;11.26;58.78;99626.97;6216334;28;96322;-72
2022/10/13 00:36:02;;;;;;;;;45.00;39.00;;;;;11.26;58.60;99624.25;6292273;27;98428;-73
2022/10/13 00:39:05;;;;;;;;;47.00;38.25;;;;;11.25;58.46;99623.44;6275925;27;98324;-73
2022/10/13 00:42:12;;;;;;;;;47.00;38.75;;;;;11.26;58.88;99629.66;6226875;28;97140;-71
2022/10/13 00:45:21;;;;;;;;;50.00;40.00;;;;;11.25;59.13;99622.59;6231048;28;97019;-73
2022/10/13 00:48:30;;;;;;;;;48.00;38.00;;;;;11.24;59.75;99621.75;6233088;28;96599;-73
2022/10/13 00:51:36;;;;;;;;;49.00;41.00;;;;;11.26;59.05;99625.09;6298484;27;96628;-73
2022/10/13 00:54:40;;;;;;;;;49.00;40.40;;;;;11.27;59.06;99617.84;6225528;28;96935;-73
2022/10/13 00:57:46;;;;;;;;;47.80;39.80;;;;;11.29;58.74;99624.66;6276907;27;97535;-73
2022/10/13 01:00:52;;;;;;;;;49.00;41.00;;;;;11.28;58.59;99625.75;6267134;27;99055;-73
2022/10/13 01:03:57;;;;;;;;;49.00;39.00;;;;;11.25;58.69;99618.03;6225291;28;96298;-69
2022/10/13 01:07:01;;;;;;;;;49.00;40.00;;;;;11.24;58.52;99619.06;6222071;28;96298;-72
2022/10/13 01:10:06;;;;;;;;;47.40;38.80;;;;;11.23;58.66;99613.91;6217582;28;97528;-72
2022/10/13 01:13:17;;;;;;;;;48.50;39.75;;;;;11.13;58.63;99603.53;6208248;28;96358;-71
2022/10/13 01:16:30;;;;;;;;;48.50;40.00;;;;;11.08;58.48;99599.78;6216669;28;96411;-72
2022/10/13 01:20:09;;;;;;;;;47.60;38.00;;;;;10.91;59.43;99595.81;6281718;27;96715;-73
2022/10/13 01:23:56;;;;;;;;;49.20;41.20;;;;;10.78;58.77;99575.91;6294709;27;96630;-72
2022/10/13 01:27:24;;;;;;;;;48.20;38.60;;;;;10.82;59.31;99589.78;6221344;28;96838;-71
2022/10/13 01:30:35;;;;;;;;;50.00;40.00;;;;;10.75;59.43;99586.28;6212597;27;96348;-70
2022/10/13 01:33:45;;;;;;;;;49.00;40.00;;;;;10.61;59.62;99581.88;6258385;27;98558;-73
2022/10/13 01:36:56;;;;;;;;;49.00;40.75;;;;;10.72;59.08;99590.19;6223208;27;96439;-71
2022/10/13 01:40:13;;;;;;;;;50.80;41.00;;;;;10.69;58.79;99587.94;6213250;28;96410;-70
2022/10/13 01:43:20;;;;;;;;;48.00;40.00;;;;;10.66;58.91;99588.31;6258499;27;97252;-71
2022/10/13 01:46:29;;;;;;;;;49.50;41.00;;;;;10.64;59.05;99589.56;6216319;28;96752;-71
2022/10/13 01:49:35;;;;;;;;;50.40;41.00;;;;;10.58;59.13;99575.03;6279287;27;96964;-71
2022/10/13 01:52:39;;;;;;;;;46.80;38.60;;;;;10.58;59.40;99574.22;6298803;27;97695;-71
2022/10/13 01:55:53;;;;;;;;;49.00;40.00;;;;;10.59;59.12;99579.41;6214112;28;97399;-73
2022/10/13 01:59:01;;;;;;;;;52.00;40.00;;;;;10.59;58.66;99584.78;6301767;27;96458;-71
2022/10/13 02:02:13;;;;;;;;;50.60;39.80;;;;;10.57;58.61;99576.06;6284929;27;96820;-69
2022/10/13 02:05:26;;;;;;;;;50.00;39.40;;;;;10.57;58.21;99575.22;6237128;28;96322;-71
2022/10/13 02:08:34;;;;;;;;;49.40;40.00;;;;;10.54;59.30;99575.66;6287210;27;96465;-72
2022/10/13 02:11:44;;;;;;;;;52.40;40.00;;;;;10.51;59.22;99584.97;6304706;27;96609;-71
2022/10/13 02:14:50;;;;;;;;;49.00;41.00;;;;;10.51;59.36;99570.66;6222787;28;96263;-71
2022/10/13 02:17:56;;;;;;;;;49.50;40.00;;;;;10.47;58.84;99572.94;6279034;27;96509;-71
2022/10/13 02:20:59;;;;;;;;;50.50;41.00;;;;;10.46;59.35;99565.06;6281112;27;96673;-71
2022/10/13 02:24:03;;;;;;;;;50.60;40.00;;;;;10.45;58.84;99572.31;6277516;27;98359;-72
2022/10/13 02:27:08;;;;;;;;;49.25;39.00;;;;;10.45;59.17;99566.09;6260896;27;96670;-72
2022/10/13 02:30:20;;;;;;;;;51.40;40.00;;;;;10.38;59.11;99556.13;6211248;27;97670;-72
2022/10/13 02:33:25;;;;;;;;;54.25;42.75;;;;;10.36;59.42;99563.56;6304865;27;96636;-71
2022/10/13 02:36:28;;;;;;;;;49.50;40.00;;;;;10.37;59.69;99567.09;6304225;27;96534;-71
2022/10/13 02:39:32;;;;;;;;;49.40;40.40;;;;;10.34;59.66;99562.13;6210506;27;98579;-71
2022/10/13 02:42:36;;;;;;;;;49.00;40.00;;;;;10.38;59.53;99568.78;6215434;28;96865;-72
2022/10/13 02:45:39;;;;;;;;;50.60;40.00;;;;;10.30;60.46;99569.81;6273043;27;96440;-72
2022/10/13 02:48:43;;;;;;;;;51.00;40.50;;;;;10.27;60.11;99564.81;6216781;27;96332;-72
2022/10/13 02:51:47;;;;;;;;;48.00;39.60;;;;;10.20;60.15;99563.13;6295753;27;96322;-72
2022/10/13 02:54:50;;;;;;;;;48.00;39.60;;;;;10.16;60.44;99562.72;6278660;27;96987;-72
2022/10/13 02:57:54;;;;;;;;;51.60;42.00;;;;;10.11;60.56;99564.31;6297750;27;96590;-72
2022/10/13 03:01:06;;;;;;;;;49.00;41.00;;;;;10.00;60.65;99563.88;6310489;27;96486;-71
2022/10/13 03:04:11;;;;;;;;;52.25;42.00;;;;;9.99;60.66;99556.81;6217895;28;97390;-71
2022/10/13 03:07:15;;;;;;;;;52.60;41.60;;;;;10.01;60.04;99556.63;6285398;27;96662;-72
2022/10/13 03:10:19;;;;;;;;;47.00;39.00;;;;;9.94;60.06;99555.75;6287498;27;96389;-71
2022/10/13 03:13:26;;;;;;;;;47.00;38.00;;;;;9.86;60.25;99547.84;6219868;28;96261;-72
2022/10/13 03:16:35;;;;;;;;;49.20;40.00;;;;;9.85;59.78;99551.56;6292461;27;97192;-71
2022/10/13 03:19:46;;;;;;;;;47.40;39.00;;;;;9.76;59.91;99542.84;6305164;27;96312;-71
2022/10/13 03:22:53;;;;;;;;;47.60;38.00;;;;;9.73;60.00;99547.78;6219464;28;97570;-71
2022/10/13 03:25:56;;;;;;;;;47.00;36.75;;;;;9.72;60.25;99552.34;6287228;27;97172;-72
2022/10/13 03:29:00;;;;;;;;;48.80;39.00;;;;;9.73;60.55;99543.22;6296343;27;96152;-71
2022/10/13 03:32:03;;;;;;;;;47.60;38.60;;;;;9.75;60.36;99546.56;6209205;28;96586;-71
2022/10/13 03:35:08;;;;;;;;;49.00;39.33;;;;;9.75;60.72;99549.25;6208148;28;97732;-72
2022/10/13 03:38:12;;;;;;;;;49.60;39.60;;;;;9.82;60.41;99538.53;6282010;27;96644;-72
2022/10/13 03:41:17;;;;;;;;;46.00;37.50;;;;;9.84;60.47;99545.34;6219951;28;96288;-72
2022/10/13 03:44:25;;;;;;;;;50.00;41.25;;;;;9.89;60.56;99542.06;6217131;27;96488;-72
2022/10/13 03:47:28;;;;;;;;;48.00;40.00;;;;;9.92;60.37;99547.06;6224784;28;97728;-71
2022/10/13 03:50:33;;;;;;;;;47.00;38.00;;;;;9.96;60.28;99546.44;6278435;27;98406;-70
2022/10/13 03:53:37;;;;;;;;;49.25;39.50;;;;;9.94;60.29;99547.66;6226356;28;97136;-72
2022/10/13 03:56:43;;;;;;;;;45.80;38.80;;;;;9.85;60.17;99548.88;6295918;27;98354;-72
2022/10/13 03:59:47;;;;;;;;;45.20;37.80;;;;;9.70;60.80;99550.88;6228561;28;96446;-72
2022/10/13 04:02:51;;;;;;;;;45.60;38.00;;;;;9.68;60.95;99543.00;6301145;27;96454;-71
2022/10/13 04:05:55;;;;;;;;;45.00;38.00;;;;;9.65;60.56;99540.72;6227236;28;96533;-71
2022/10/13 04:08:59;;;;;;;;;46.75;38.00;;;;;9.67;60.45;99537.84;6291784;27;97957;-71
2022/10/13 04:12:02;;;;;;;;;49.00;38.75;;;;;9.62;60.33;99538.44;6218923;27;96915;-71
2022/10/13 04:15:06;;;;;;;;;48.60;40.00;;;;;9.57;60.39;99544.41;6270000;27;98600;-71
2022/10/13 04:18:11;;;;;;;;;46.80;38.80;;;;;9.54;60.29;99544.78;6292678;27;96381;-72
2022/10/13 04:21:16;;;;;;;;;49.00;40.00;;;;;9.47;59.87;99541.25;6301332;27;96583;-72
2022/10/13 04:24:19;;;;;;;;;48.60;39.00;;;;;9.46;59.78;99536.91;6218072;27;96516;-71
2022/10/13 04:27:23;;;;;;;;;45.20;36.60;;;;;9.45;59.45;99540.59;6216014;28;96367;-71
2022/10/13 04:30:27;;;;;;;;;45.50;37.00;;;;;9.40;59.14;99543.06;6217894;28;96305;-72
2022/10/13 04:33:30;;;;;;;;;45.80;38.00;;;;;9.39;58.99;99538.69;6294395;27;97238;-70
2022/10/13 04:36:35;;;;;;;;;46.25;37.75;;;;;9.22;59.03;99517.69;6216383;28;96304;-70
2022/10/13 04:39:39;;;;;;;;;46.00;38.20;;;;;9.26;58.89;99538.63;6213949;28;96725;-71
2022/10/13 04:42:42;;;;;;;;;45.20;37.60;;;;;9.24;58.87;99539.84;6289145;27;96334;-71
2022/10/13 04:45:47;;;;;;;;;47.40;38.40;;;;;9.21;59.11;99543.78;6296828;27;96719;-71
2022/10/13 04:48:51;;;;;;;;;47.20;38.00;;;;;9.23;59.27;99543.59;6219297;28;96887;-69
2022/10/13 04:51:58;;;;;;;;;44.40;36.80;;;;;9.23;59.33;99528.28;6290447;27;97448;-70
2022/10/13 04:55:01;;;;;;;;;47.00;38.20;;;;;9.24;59.65;99531.78;6227177;28;96884;-73
2022/10/13 04:58:04;;;;;;;;;46.60;39.00;;;;;9.21;60.02;99534.88;6271901;27;97041;-71
2022/10/13 05:01:11;;;;;;;;;50.00;40.67;;;;;9.19;60.48;99536.94;6293352;27;96615;-71
2022/10/13 05:04:21;;;;;;;;;44.00;37.00;;;;;9.24;60.57;99535.28;6288558;27;98821;-71
2022/10/13 05:07:25;;;;;;;;;45.00;38.00;;;;;9.30;60.55;99533.69;6232009;28;96775;-71
2022/10/13 05:10:28;;;;;;;;;46.80;38.00;;;;;9.34;60.53;99541.16;6299349;27;96575;-71
2022/10/13 05:13:38;;;;;;;;;49.20;38.00;;;;;9.35;60.43;99537.44;6232700;28;96293;-71
2022/10/13 05:16:41;;;;;;;;;47.00;38.00;;;;;9.42;60.48;99540.19;6232957;28;97577;-70
2022/10/13 05:19:44;;;;;;;;;45.00;36.00;;;;;9.41;60.38;99543.91;6232463;28;96910;-71
2022/10/13 05:22:49;;;;;;;;;43.00;36.00;;;;;9.40;60.38;99545.75;6300056;27;96578;-71
2022/10/13 05:25:52;;;;;;;;;44.50;36.75;;;;;9.39;60.24;99545.94;6299774;27;96412;-70
2022/10/13 05:28:57;;;;;;;;;45.00;37.00;;;;;9.41;60.36;99549.28;6300733;27;96628;-71
2022/10/13 05:32:05;;;;;;;;;40.60;35.00;;;;;9.45;59.79;99558.63;6283129;27;96676;-69
2022/10/13 05:35:09;;;;;;;;;44.00;36.00;;;;;9.42;59.98;99557.16;6277177;27;98356;-71
2022/10/13 05:38:16;;;;;;;;;44.00;36.00;;;;;9.44;59.89;99546.19;6269030;27;98512;-71
2022/10/13 05:41:28;;;;;;;;;41.60;35.60;;;;;9.57;60.19;99549.81;6208218;28;97060;-70
2022/10/13 05:44:31;;;;;;;;;45.00;35.00;;;;;9.70;59.82;99551.72;6224340;28;96545;-70
2022/10/13 05:47:35;;;;;;;;;45.00;37.80;;;;;9.84;59.34;99555.28;6275598;27;96611;-70
2022/10/13 05:50:38;;;;;;;;;41.40;36.00;;;;;9.84;58.65;99549.91;6297980;27;96324;-70
2022/10/13 05:53:47;;;;;;;;;43.00;36.00;;;;;9.83;58.49;99551.75;6261399;27;99204;-71
2022/10/13 05:56:59;;;;;;;;;42.40;36.00;;;;;9.92;58.60;99547.84;6208114;28;96559;-70
2022/10/13 06:00:09;;;;;;;;;40.80;35.00;;;;;9.99;58.35;99554.13;6212443;28;96854;-71
2022/10/13 06:03:19;;;;;;;;;42.80;35.00;;;;;10.05;57.93;99546.25;6227349;28;98225;-70
2022/10/13 06:06:23;;;;;;;;;45.00;37.00;;;;;10.15;57.59;99549.41;6221556;27;96882;-69
2022/10/13 06:09:36;;;;;;;;;40.20;35.00;;;;;10.32;57.64;99548.03;6285067;27;96658;-71
2022/10/13 06:12:40;;;;;;;;;45.60;38.00;;;;;10.47;57.21;99551.38;6275499;27;96810;-71
2022/10/13 06:15:43;;;;;;;;;40.75;35.00;;;;;10.56;56.97;99552.00;6216344;28;96229;-71
2022/10/13 06:18:48;;;;;;;;;45.00;36.00;;;;;10.66;57.26;99550.56;6212696;28;97061;-71
2022/10/13 06:21:52;;;;;;;;;45.80;38.00;;;;;10.79;56.77;99556.00;6205457;28;97083;-72
2022/10/13 06:24:57;;;;;;;;;42.00;35.00;;;;;10.81;56.81;99555.75;6282304;27;98672;-70
2022/10/13 06:28:00;;;;;;;;;46.00;38.80;;;;;10.88;57.06;99555.78;6286120;27;96494;-71
2022/10/13 06:31:05;;;;;;;;;49.00;39.60;;;;;11.04;57.32;99553.50;6290297;27;98831;-70
2022/10/13 06:34:08;;;;;;;;;44.40;35.20;;;;;11.10;56.33;99562.59;6282967;27;98337;-71
2022/10/13 06:37:12;;;;;;;;;47.00;37.00;;;;;11.13;56.24;99543.31;6216648;28;96874;-71
2022/10/13 06:40:17;;;;;;;;;44.25;36.00;;;;;11.32;56.00;99555.94;6283668;27;98769;-69
2022/10/13 06:43:20;;;;;;;;;44.40;37.40;;;;;11.40;55.88;99561.13;6278063;27;96526;-71
2022/10/13 06:46:25;;;;;;;;;43.00;36.00;;;;;11.32;55.89;99563.22;6289000;27;96569;-72
2022/10/13 06:49:29;;;;;;;;;45.80;36.40;;;;;11.39;56.24;99564.84;6210378;28;96519;-70
2022/10/13 06:52:32;;;;;;;;;45.00;38.00;;;;;11.48;55.60;99560.91;6212947;28;97056;-71
2022/10/13 06:55:37;;;;;;;;;44.80;35.80;;;;;11.56;55.40;99549.88;6223096;28;96586;-71
2022/10/13 06:58:40;;;;;;;;;50.40;41.00;;;;;11.64;55.10;99551.50;6213366;28;96555;-71
2022/10/13 07:01:44;;;;;;;;;45.00;38.00;;;;;11.68;55.03;99555.44;6213325;28;96493;-71
2022/10/13 07:04:47;;;;;;;;;46.20;38.80;;;;;11.79;54.78;99545.88;6294630;27;98324;-71
2022/10/13 07:07:52;;;;;;;;;41.50;35.00;;;;;11.93;54.17;99548.31;6277808;27;97056;-71
2022/10/13 07:10:57;;;;;;;;;42.60;35.00;;;;;12.08;54.02;99538.06;6259021;27;97469;-70
2022/10/13 07:14:00;;;;;;;;;46.75;37.75;;;;;12.19;53.63;99550.06;6271365;27;96679;-71
2022/10/13 07:17:09;;;;;;;;;42.80;35.00;;;;;12.51;52.94;99550.94;6278531;27;97005;-71
2022/10/13 07:20:12;;;;;;;;;41.20;35.00;;;;;12.77;52.07;99555.31;6272122;27;96851;-72
2022/10/13 07:23:15;;;;;;;;;43.00;36.00;;;;;12.98;51.58;99563.91;6231525;28;96427;-71
2022/10/13 07:26:20;;;;;;;;;47.25;37.25;;;;;13.31;50.66;99549.25;6291400;27;96960;-71
2022/10/13 07:29:23;;;;;;;;;45.00;36.00;;;;;13.57;49.11;99548.19;6294192;27;96791;-73
2022/10/13 07:32:27;;;;;;;;;40.00;35.00;;;;;14.41;48.07;99545.50;6302763;27;98525;-73
2022/10/13 07:35:30;;;;;;;;;46.40;36.40;;;;;15.27;46.68;99553.06;6286240;27;99063;-72
2022/10/13 07:38:34;;;;;;;;;42.00;36.00;;;;;15.70;44.84;99546.47;6303095;27;96513;-72
2022/10/13 07:41:40;;;;;;;;;44.80;36.00;;;;;16.43;43.95;99546.59;6234988;28;96299;-72
2022/10/13 07:44:43;;;;;;;;;44.00;35.50;;;;;17.50;41.39;99530.97;6303439;27;96432;-73
2022/10/13 07:47:46;;;;;;;;;43.80;37.00;;;;;19.83;37.99;99539.63;6302191;27;96857;-73
2022/10/13 07:50:50;;;;;;;;;42.00;35.00;;;;;21.58;33.98;99530.31;6302190;27;99083;-72
2022/10/13 07:53:54;;;;;;;;;42.60;35.60;;;;;23.59;30.75;99538.47;6285106;27;96808;-72
2022/10/13 07:56:59;;;;;;;;;44.60;35.40;;;;;26.04;26.85;99528.97;6277018;27;96510;-71
2022/10/13 08:00:04;;;;;;;;;38.40;33.00;;;;;28.29;24.82;99525.59;6275119;27;98389;-71
2022/10/13 08:03:14;;;;;;;;;35.00;32.00;;;;;30.21;22.74;99523.00;6289116;27;96797;-74
2022/10/13 08:06:17;;;;;;;;;37.00;32.60;;;;;31.70;20.55;99516.34;6277690;27;96986;-73
2022/10/13 08:09:20;;;;;;;;;37.20;33.00;;;;;32.90;19.31;99516.59;6209014;28;96244;-74
2022/10/13 08:12:26;;;;;;;;;35.80;32.00;;;;;33.77;18.44;99513.84;6290478;27;96187;-71
2022/10/13 08:15:29;;;;;;;;;34.00;32.00;;;;;34.44;17.61;99499.91;6209585;28;96237;-71
2022/10/13 08:18:32;;;;;;;;;38.00;32.75;;;;;35.29;17.11;99507.31;6286272;27;96410;-71
2022/10/13 08:21:37;;;;;;;;;34.00;30.00;;;;;36.11;15.99;99501.19;6287973;27;97338;-72
2022/10/13 08:25:01;;;;;;;;;33.00;30.00;;;;;36.90;15.72;99499.13;6277612;27;96603;-72
2022/10/13 08:28:07;;;;;;;;;34.00;32.00;;;;;37.36;15.19;99484.81;6219008;28;96600;-73
2022/10/13 08:31:17;;;;;;;;;34.80;30.00;;;;;37.88;15.02;99495.78;6217857;28;97014;-74
2022/10/13 08:34:21;;;;;;;;;31.60;30.00;;;;;38.47;14.38;99483.38;6220620;28;96243;-72
2022/10/13 08:37:26;;;;;;;;;32.00;29.50;;;;;39.18;13.26;99477.25;6230045;28;96425;-73
2022/10/13 08:40:31;;;;;;;;;32.60;30.00;;;;;39.56;13.26;99473.72;6293062;27;96522;-73
2022/10/13 08:43:37;;;;;;;;;33.00;30.00;;;;;39.25;13.17;99475.25;6274848;27;96429;-72
2022/10/13 08:47:10;;;;;;;;;34.20;30.20;;;;;39.62;13.42;99471.31;6290367;27;96883;-71
2022/10/13 08:50:15;;;;;;;;;28.80;28.20;;;;;40.17;13.26;99477.34;6225176;28;96644;-72
2022/10/13 08:53:27;;;;;;;;;31.40;30.00;;;;;40.53;12.71;99475.25;6274496;27;96499;-73
2022/10/13 08:56:33;;;;;;;;;32.40;28.60;;;;;40.76;12.18;99469.94;6277834;27;96740;-73
2022/10/13 08:59:38;;;;;;;;;28.00;25.20;;;;;41.09;12.24;99471.44;6209625;28;96276;-73
2022/10/13 09:02:43;;;;;;;;;30.00;27.75;;;;;41.35;11.71;99462.38;6288295;27;97611;-73
2022/10/13 09:05:59;;;;;;;;;29.00;26.00;;;;;41.39;12.01;99449.03;6285779;27;96308;-74
2022/10/13 09:09:06;;;;;;;;;31.00;28.60;;;;;41.70;11.72;99457.69;6208106;28;96604;-72
2022/10/13 09:12:12;;;;;;;;;29.75;28.75;;;;;41.98;12.13;99442.50;6279652;27;96259;-73
2022/10/13 09:15:18;;;;;;;;;27.00;25.20;;;;;42.09;11.59;99448.84;6212612;28;97514;-72
2022/10/13 09:18:29;;;;;;;;;26.60;25.00;;;;;41.93;11.38;99444.56;6206064;28;96885;-73
2022/10/13 09:21:32;;;;;;;;;26.00;25.00;;;;;41.97;11.52;99447.38;6274684;27;96690;-73
2022/10/13 09:24:36;;;;;;;;;26.67;25.67;;;;;41.95;11.71;99435.66;6208297;28;96483;-73
2022/10/13 09:27:45;;;;;;;;;30.00;27.00;;;;;41.94;11.39;99442.53;6207640;28;96416;-73
2022/10/13 09:31:01;;;;;;;;;29.00;27.40;;;;;42.04;11.64;99440.81;6211155;27;96098;-72
2022/10/13 09:34:15;;;;;;;;;31.33;28.00;;;;;42.00;11.57;99437.22;6276957;27;96888;-73
2022/10/13 09:37:21;;;;;;;;;31.00;30.00;;;;;41.60;11.55;99385.78;6301010;27;98823;-72
2022/10/13 09:40:24;;;;;;;;;27.40;27.40;;;;;41.67;11.14;99442.34;6233223;28;96610;-73
2022/10/13 09:43:30;;;;;;;;;28.00;27.00;;;;;41.65;12.22;99435.47;6233039;28;96346;-73
2022/10/13 09:46:39;;;;;;;;;32.00;30.00;;;;;41.54;12.02;99434.78;6301282;27;96151;-73
2022/10/13 09:49:43;;;;;;;;;31.00;30.00;;;;;41.53;12.10;99433.97;6300170;27;98020;-74
2022/10/13 09:52:48;;;;;;;;;31.00;27.60;;;;;41.30;12.14;99433.72;6300220;27;96642;-73
2022/10/13 09:56:08;;;;;;;;;32.40;30.00;;;;;40.81;12.96;99424.28;6233123;28;96277;-73
2022/10/13 09:59:24;;;;;;;;;31.00;29.00;;;;;40.87;12.51;99422.63;6289200;27;97010;-73
2022/10/13 10:02:35;;;;;;;;;32.75;30.00;;;;;40.93;12.49;99417.34;6207522;28;96535;-70
2022/10/13 10:05:47;;;;;;;;;31.40;29.40;;;;;40.55;12.67;99419.13;6208116;28;96198;-71
2022/10/13 10:08:55;;;;;;;;;32.75;28.75;;;;;40.59;12.86;99406.59;6208533;28;96261;-71
2022/10/13 10:12:15;;;;;;;;;26.00;25.00;;;;;40.59;13.02;99408.63;6208080;28;96222;-71
2022/10/13 10:15:23;;;;;;;;;30.00;28.40;;;;;40.45;12.99;99397.38;6208062;28;96412;-68
2022/10/13 10:18:36;;;;;;;;;27.00;25.40;;;;;40.51;12.94;99390.09;6207942;28;96917;-71
2022/10/13 10:21:46;;;;;;;;;27.60;27.00;;;;;40.86;12.99;99389.91;6209411;28;96365;-70
2022/10/13 10:25:00;;;;;;;;;28.00;26.80;;;;;41.02;12.92;99383.75;6290164;27;98587;-71
2022/10/13 10:28:26;;;;;;;;;27.00;26.00;;;;;41.01;12.97;99380.13;6235897;28;96543;-71
2022/10/13 10:31:46;;;;;;;;;24.75;24.00;;;;;41.14;12.64;99382.50;6304450;27;96667;-70
2022/10/13 10:34:57;;;;;;;;;24.60;22.60;;;;;41.32;12.79;99374.69;6236309;28;96353;-71
2022/10/13 10:38:18;;;;;;;;;23.80;21.80;;;;;41.27;12.91;99377.94;6287536;27;96783;-71
2022/10/13 10:41:38;;;;;;;;;22.40;21.40;;;;;41.23;12.87;99371.53;6236439;28;96419;-72
2022/10/13 10:44:46;;;;;;;;;24.20;22.00;;;;;41.15;12.77;99367.97;6304394;27;96756;-70
2022/10/13 10:47:54;;;;;;;;;20.00;19.00;;;;;41.21;12.96;99366.28;6235963;27;96284;-70
2022/10/13 10:51:01;;;;;;;;;24.75;22.75;;;;;40.83;12.81;99350.34;6303020;27;96641;-71
2022/10/13 10:54:19;;;;;;;;;22.00;20.00;;;;;40.68;12.98;99363.78;6303725;27;96688;-71
2022/10/13 10:57:29;;;;;;;;;22.60;21.60;;;;;40.72;13.38;99350.41;6326686;27;96642;-70
2022/10/13 11:00:38;;;;;;;;;24.25;22.00;;;;;40.57;13.08;99354.50;6301852;27;96727;-69
2022/10/13 11:03:50;;;;;;;;;23.25;22.00;;;;;40.30;13.79;99356.25;6297996;27;96336;-71
2022/10/13 11:06:55;;;;;;;;;25.40;22.40;;;;;40.31;13.64;99352.22;6309484;27;96583;-72
2022/10/13 11:10:17;;;;;;;;;23.25;22.00;;;;;40.52;13.16;99340.81;6294792;27;96260;-69
2022/10/13 11:13:21;;;;;;;;;23.00;21.00;;;;;40.35;13.34;99341.72;6264075;27;97546;-70
2022/10/13 11:16:29;;;;;;;;;24.80;22.00;;;;;40.38;13.97;99340.88;6288872;27;98464;-71
2022/10/13 11:19:34;;;;;;;;;22.25;21.00;;;;;40.37;13.54;99325.94;6272426;27;99032;-70
2022/10/13 11:22:39;;;;;;;;;21.00;20.00;;;;;40.40;13.36;99329.97;6289477;27;96714;-71
2022/10/13 11:25:44;;;;;;;;;24.75;21.00;;;;;40.42;13.49;99319.09;6287832;27;98576;-70
2022/10/13 11:28:49;;;;;;;;;23.00;21.60;;;;;40.47;13.70;99313.78;6220392;28;96681;-71
2022/10/13 11:31:54;;;;;;;;;22.60;19.60;;;;;40.62;13.39;99317.38;6220622;28;96463;-70
2022/10/13 11:35:18;;;;;;;;;23.00;20.00;;;;;40.29;13.58;99301.78;6219614;28;97022;-69
2022/10/13 11:38:34;;;;;;;;;18.00;17.00;;;;;40.26;13.68;99302.59;6220565;27;96683;-70
2022/10/13 11:41:47;;;;;;;;;21.40;19.00;;;;;40.31;13.57;99304.19;6208195;28;97061;-70
2022/10/13 11:44:55;;;;;;;;;20.75;19.50;;;;;40.33;13.71;99293.28;6218177;28;96503;-71
2022/10/13 11:48:26;;;;;;;;;20.60;20.00;;;;;40.20;13.73;99295.78;6220200;28;97024;-71
2022/10/13 11:51:36;;;;;;;;;21.60;20.00;;;;;40.08;13.58;99280.03;6220351;28;96286;-70
2022/10/13 11:54:49;;;;;;;;;21.00;19.00;;;;;40.05;13.47;99282.91;6221099;28;97306;-70
2022/10/13 11:58:08;;;;;;;;;20.40;19.40;;;;;39.66;14.35;99280.97;6220814;28;96439;-69
2022/10/13 12:01:14;;;;;;;;;17.60;17.20;;;;;39.38;14.08;99279.03;6221022;28;96592;-70
2022/10/13 12:04:21;;;;;;;;;20.00;18.00;;;;;38.94;14.27;99278.63;6219762;28;96988;-70
2022/10/13 12:07:31;;;;;;;;;20.00;16.00;;;;;38.60;14.50;99269.69;6287175;27;96730;-70
2022/10/13 12:10:37;;;;;;;;;19.60;19.00;;;;;37.95;15.61;99264.19;6287610;27;96561;-70
2022/10/13 12:13:46;;;;;;;;;18.00;16.00;;;;;37.37;15.58;99261.44;6217796;28;96897;-69
2022/10/13 12:16:54;;;;;;;;;17.20;16.00;;;;;36.41;17.08;99264.16;6288127;27;97072;-69
2022/10/13 12:20:00;;;;;;;;;17.80;16.00;;;;;35.87;17.31;99267.50;6219663;27;96461;-71
2022/10/13 12:23:03;;;;;;;;;18.60;17.60;;;;;35.09;17.74;99257.09;6221735;28;96561;-70
2022/10/13 12:26:15;;;;;;;;;16.40;16.00;;;;;34.42;17.87;99264.28;6220985;28;96366;-71
2022/10/13 12:29:23;;;;;;;;;14.80;13.20;;;;;33.96;18.17;99246.56;6289423;27;96697;-71
2022/10/13 12:32:28;;;;;;;;;14.00;12.20;;;;;33.55;18.58;99245.22;6293784;27;96684;-71
2022/10/13 12:35:33;;;;;;;;;14.00;13.80;;;;;32.90;19.12;99225.31;6220575;28;96327;-70
2022/10/13 12:38:38;;;;;;;;;15.00;14.00;;;;;32.54;19.69;99243.94;6287841;27;96315;-71
2022/10/13 12:41:45;;;;;;;;;14.00;13.40;;;;;32.32;19.86;99238.94;6206970;28;96802;-70
2022/10/13 12:44:48;;;;;;;;;14.00;13.00;;;;;32.10;19.72;99239.50;6216294;27;97303;-70
2022/10/13 12:47:53;;;;;;;;;16.40;14.40;;;;;31.47;20.38;99227.28;6288485;27;98715;-70
2022/10/13 12:51:17;;;;;;;;;13.60;13.00;;;;;30.81;20.64;99236.69;6215006;28;96855;-70
2022/10/13 12:54:24;;;;;;;;;12.60;11.60;;;;;30.52;21.51;99225.75;6217639;28;97709;-72
2022/10/13 12:57:34;;;;;;;;;12.00;12.00;;;;;30.27;21.75;99224.03;6228097;27;97093;-72
2022/10/13 13:00:38;;;;;;;;;13.50;13.00;;;;;30.23;21.84;99228.66;6300195;27;96439;-70
2022/10/13 13:03:43;;;;;;;;;12.40;12.40;;;;;30.05;21.83;99217.72;6232045;28;96277;-71
2022/10/13 13:06:55;;;;;;;;;12.00;11.80;;;;;29.87;22.15;99223.75;6232684;28;96838;-72
2022/10/13 13:10:14;;;;;;;;;12.60;11.60;;;;;29.56;22.25;99221.41;6300555;27;96411;-71
2022/10/13 13:13:23;;;;;;;;;10.25;10.00;;;;;29.40;23.36;99212.03;6220314;28;96264;-71
2022/10/13 13:16:27;;;;;;;;;11.00;9.00;;;;;29.44;22.78;99218.56;6276090;27;96637;-71
2022/10/13 13:19:32;;;;;;;;;9.40;8.40;;;;;29.24;22.33;99204.28;6301014;27;96881;-70
2022/10/13 13:22:35;;;;;;;;;13.00;11.00;;;;;29.01;23.45;99204.94;6279686;27;96673;-71
2022/10/13 13:25:43;;;;;;;;;11.40;11.00;;;;;28.86;22.94;99206.31;6298420;27;96539;-71
2022/10/13 13:28:49;;;;;;;;;11.75;10.00;;;;;28.65;23.18;99197.88;6300181;27;96750;-70
2022/10/13 13:31:52;;;;;;;;;13.00;10.75;;;;;28.36;23.41;99198.66;6231389;28;96915;-71
2022/10/13 13:34:56;;;;;;;;;12.00;10.40;;;;;28.13;23.98;99202.81;6216080;28;96760;-69
2022/10/13 13:37:59;;;;;;;;;9.00;9.00;;;;;27.60;24.52;99202.34;6297709;27;96703;-70
2022/10/13 13:41:03;;;;;;;;;11.40;9.80;;;;;27.69;24.94;99198.44;6290784;27;96885;-71
2022/10/13 13:44:07;;;;;;;;;13.00;10.75;;;;;27.65;25.05;99202.19;6209428;28;96337;-70
2022/10/13 13:47:16;;;;;;;;;9.80;9.80;;;;;27.46;24.98;99199.72;6292022;27;96701;-70
2022/10/13 13:50:25;;;;;;;;;13.00;12.00;;;;;27.43;25.36;99198.41;6270840;27;97419;-69
2022/10/13 13:53:31;;;;;;;;;10.80;10.20;;;;;26.88;25.74;99192.59;6273683;27;97145;-70
2022/10/13 13:56:35;;;;;;;;;13.00;12.00;;;;;26.69;26.06;99198.38;6209119;28;96510;-70
2022/10/13 13:59:43;;;;;;;;;10.75;10.75;;;;;26.70;26.48;99202.78;6212807;28;96748;-69
2022/10/13 14:02:48;;;;;;;;;12.00;10.00;;;;;26.73;26.86;99199.38;6220848;27;97108;-71
2022/10/13 14:05:51;;;;;;;;;12.00;11.00;;;;;26.78;26.52;99195.63;6213345;28;97250;-69
2022/10/13 14:08:54;;;;;;;;;12.00;10.00;;;;;26.72;26.67;99191.41;6215267;28;96230;-70
2022/10/13 14:11:58;;;;;;;;;11.40;10.00;;;;;26.38;26.91;99192.09;6210139;27;97615;-69
2022/10/13 14:15:04;;;;;;;;;11.60;10.60;;;;;26.19;27.24;99200.56;6258420;27;96768;-72
2022/10/13 14:18:07;;;;;;;;;9.00;9.00;;;;;26.03;27.77;99198.53;6276621;27;96723;-71
2022/10/13 14:21:11;;;;;;;;;13.00;11.00;;;;;25.72;27.71;99195.69;6219787;28;97097;-70
2022/10/13 14:24:15;;;;;;;;;11.00;10.00;;;;;25.61;28.13;99186.84;6208909;28;96407;-71